createdAt,value
2019-03-25T00:08:10.361Z,51
2019-03-25T00:18:08.272Z,51.6
2019-03-25T00:28:10.081Z,41.3
2019-03-25T00:38:09.607Z,39
2019-03-25T00:48:09.147Z,37.7
2019-03-25T00:58:20.647Z,48.5
2019-03-25T01:08:18.414Z,49.8
2019-03-25T01:18:18.978Z,47.8
2019-03-25T01:28:18.413Z,37.7
2019-03-25T01:38:17.796Z,41.4
2019-03-25T01:48:17.207Z,39.3
2019-03-25T01:58:16.734Z,41.4
2019-03-25T02:08:16.143Z,39.8
2019-03-25T02:18:14.640Z,49.7
2019-03-25T02:28:15.356Z,39.8
2019-03-25T02:38:15.021Z,39.9
2019-03-25T02:48:14.996Z,40.6
2019-03-25T02:58:15.148Z,42.1
2019-03-25T03:08:15.226Z,42.8
2019-03-25T03:18:18.167Z,42.3
2019-03-25T03:28:29.333Z,44.4
2019-03-25T03:38:27.735Z,58.3
2019-03-25T03:48:31.654Z,46.6
2019-03-25T03:58:44.800Z,53.9
2019-03-25T04:08:42.806Z,53.5
2019-03-25T04:18:41.321Z,56.4
2019-03-25T04:28:41.234Z,46.2
2019-03-25T04:38:41.017Z,48.9
2019-03-25T04:48:40.731Z,49
2019-03-25T04:58:40.149Z,49.4
2019-03-25T05:08:39.779Z,48
2019-03-25T05:18:39.370Z,47.8
2019-03-25T05:28:44.440Z,51.5
2019-03-25T05:38:44.298Z,46.8
2019-03-25T05:48:44.458Z,41.7
2019-03-25T05:58:44.076Z,38.9
2019-03-25T06:08:44.658Z,38.6
2019-03-25T06:18:44.929Z,38.2
2019-03-25T06:28:45.659Z,39
2019-03-25T06:38:45.426Z,43.5
2019-03-25T06:48:45.292Z,38.1
2019-03-25T06:58:56.924Z,41.2
2019-03-25T07:08:56.784Z,34.8
2019-03-25T07:18:58.779Z,38.8
2019-03-25T07:29:09.995Z,37.5
2019-03-25T07:39:12.005Z,35.4
2019-03-25T07:49:13.177Z,42.9
2019-03-25T07:59:20.500Z,32.4
2019-03-25T08:09:21.223Z,31.6
2019-03-25T08:19:24.347Z,31.5
2019-03-25T08:29:31.708Z,34.8
2019-03-25T08:39:34.756Z,34.6
2019-03-25T08:49:33.829Z,42.2
2019-03-25T08:59:43.555Z,30
2019-03-25T09:09:46.421Z,29.9
2019-03-25T09:19:46.354Z,29.5
2019-03-25T09:29:55.758Z,31.9
2019-03-25T09:40:07.558Z,30.1
2019-03-25T09:50:08.656Z,43.2
2019-03-25T10:00:09.012Z,36.9
2019-03-25T10:10:09.323Z,26.3
2019-03-25T10:20:07.576Z,37.5
2019-03-25T10:30:20.510Z,23.2
2019-03-25T10:40:20.526Z,22.8
2019-03-25T10:50:20.115Z,20.4
2019-03-25T11:00:29.522Z,18.4
2019-03-25T11:10:32.166Z,18.7
2019-03-25T11:20:35.531Z,15.2
2019-03-25T11:30:39.943Z,15.4
2019-03-25T11:40:39.589Z,14.1
2019-03-25T11:50:41.034Z,11.3
2019-03-25T12:00:49.665Z,16.6
2019-03-25T12:10:49.395Z,17.9
2019-03-25T12:20:48.752Z,14
2019-03-25T12:31:01.821Z,14.5
2019-03-25T12:41:02.056Z,12.6
2019-03-25T12:51:01.560Z,8
2019-03-25T13:01:12.763Z,7.1
2019-03-25T13:11:23.661Z,3.9
2019-03-25T13:21:23.169Z,2.6
2019-03-25T13:31:33.623Z,2.6
2019-03-25T13:41:32.477Z,6
2019-03-25T13:51:36.790Z,3.3
2019-03-25T14:01:37.703Z,5.7
2019-03-25T14:11:37.371Z,11
2019-03-25T14:21:36.973Z,2.9
2019-03-25T14:31:46.261Z,2.6
2019-03-25T14:41:46.389Z,3.2
2019-03-25T14:51:56.249Z,9.7
2019-03-25T15:01:56.833Z,6.4
2019-03-25T15:11:56.612Z,4.2
2019-03-25T15:21:56.334Z,4.6
2019-03-25T15:32:07.609Z,16.6
2019-03-25T15:42:20.825Z,5.8
2019-03-25T15:52:26.487Z,6.6
2019-03-25T16:02:24.383Z,8.4
2019-03-25T16:12:23.952Z,3.4
2019-03-25T16:22:23.921Z,3.2
2019-03-25T16:32:31.348Z,2.7
2019-03-25T16:42:31.478Z,3.2
2019-03-25T16:52:32.573Z,5.9
2019-03-25T17:02:41.211Z,11
2019-03-25T17:12:42.405Z,3
2019-03-25T17:22:46.983Z,2.6
2019-03-25T17:32:52.877Z,8.2
2019-03-25T17:42:53.901Z,3.5
2019-03-25T17:52:53.800Z,2.3
2019-03-25T18:03:11.514Z,2.5
2019-03-25T18:13:22.971Z,2.8
2019-03-25T18:23:31.092Z,6.2
2019-03-25T18:33:31.091Z,4.4
2019-03-25T18:43:31.011Z,3.5
2019-03-25T18:53:31.448Z,5
2019-03-25T19:03:31.617Z,6.4
2019-03-25T19:13:32.060Z,9.5
2019-03-25T19:23:36.654Z,10.3
2019-03-25T19:33:39.319Z,5
2019-03-25T19:43:40.880Z,5.5
2019-03-25T19:53:51.089Z,3
2019-03-25T20:03:53.208Z,3.6
2019-03-25T20:13:58.904Z,2.9
2019-03-25T20:24:16.217Z,8.5
2019-03-25T20:34:17.033Z,5.1
2019-03-25T20:44:21.376Z,4.4
2019-03-25T20:54:23.030Z,6
2019-03-25T21:04:25.260Z,4
2019-03-25T21:14:25.651Z,8.4
2019-03-25T21:24:27.818Z,4
2019-03-25T21:34:33.395Z,3
2019-03-25T21:44:38.197Z,4.5
2019-03-25T21:54:41.018Z,4.2
2019-03-25T22:04:43.796Z,3.6
2019-03-25T22:14:43.970Z,3.5
2019-03-25T22:24:43.751Z,3.3
2019-03-25T22:34:56.475Z,8.4
2019-03-25T22:44:56.195Z,3.2
2019-03-25T22:54:54.406Z,8.6
2019-03-25T23:04:54.099Z,3.3
2019-03-25T23:14:53.595Z,3.4
2019-03-25T23:24:51.920Z,9.5
2019-03-25T23:34:51.697Z,4.5
2019-03-25T23:44:51.604Z,3.4
2019-03-25T23:54:54.401Z,3.3
